createdAt,value
2023-03-19T00:00:54.523Z,6.33
2023-03-19T00:01:58.405Z,6.58
2023-03-19T00:03:02.084Z,6.60
2023-03-19T00:04:05.577Z,6.38
2023-03-19T00:05:08.756Z,6.03
2023-03-19T00:06:12.459Z,6.24
2023-03-19T00:07:15.846Z,5.92
2023-03-19T00:08:19.128Z,6.32
2023-03-19T00:09:22.122Z,6.64
2023-03-19T00:10:25.091Z,6.11
2023-03-19T00:11:28.184Z,6.33
2023-03-19T00:12:30.954Z,5.86
2023-03-19T00:13:33.821Z,6.38
2023-03-19T00:14:36.711Z,6.23
2023-03-19T00:15:39.673Z,6.02
2023-03-19T00:16:42.883Z,6.12
2023-03-19T00:17:46.136Z,6.38
2023-03-19T00:18:49.556Z,5.88
2023-03-19T00:19:52.895Z,6.14
2023-03-19T00:20:55.901Z,6.23
2023-03-19T00:21:58.829Z,6.21
2023-03-19T00:23:02.336Z,6.28
2023-03-19T00:24:05.324Z,5.96
2023-03-19T00:25:08.620Z,6.07
2023-03-19T00:26:11.792Z,6.32
2023-03-19T00:27:15.383Z,6.08
2023-03-19T00:28:18.359Z,5.96
2023-03-19T00:29:21.436Z,5.99
2023-03-19T00:30:24.543Z,5.82
2023-03-19T00:31:27.493Z,6.28
2023-03-19T00:32:30.719Z,5.46
2023-03-19T00:33:33.547Z,5.96
2023-03-19T00:34:36.633Z,5.83
2023-03-19T00:35:39.549Z,5.85
2023-03-19T00:36:42.285Z,5.70
2023-03-19T00:37:45.574Z,5.33
2023-03-19T00:38:48.442Z,6.11
2023-03-19T00:39:51.236Z,5.82
2023-03-19T00:40:54.281Z,5.42
2023-03-19T00:41:56.977Z,5.41
2023-03-19T00:43:00.244Z,5.87
2023-03-19T00:44:03.110Z,5.86
2023-03-19T00:45:06.399Z,6.68
2023-03-19T00:46:09.542Z,9.18
2023-03-19T00:47:12.171Z,9.30
2023-03-19T00:48:15.226Z,9.39
2023-03-19T00:49:17.819Z,9.50
2023-03-19T00:50:20.772Z,7.76
2023-03-19T00:51:23.663Z,6.77
2023-03-19T00:52:26.617Z,9.24
2023-03-19T00:53:29.204Z,9.21
2023-03-19T00:54:32.304Z,9.12
2023-03-19T00:55:35.443Z,9.06
2023-03-19T00:56:38.426Z,9.34
2023-03-19T00:57:41.325Z,9.85
2023-03-19T00:58:44.197Z,8.91
2023-03-19T00:59:47.067Z,9.28
2023-03-19T01:00:50.031Z,8.78
2023-03-19T01:01:53.209Z,8.85
2023-03-19T01:02:56.389Z,9.36
2023-03-19T01:03:59.595Z,8.94
2023-03-19T01:05:02.653Z,9.55
2023-03-19T01:06:05.558Z,9.13
2023-03-19T01:07:08.419Z,9.25
2023-03-19T01:08:11.194Z,8.52
2023-03-19T01:09:14.173Z,7.88
2023-03-19T01:10:17.219Z,7.47
2023-03-19T01:11:20.414Z,8.25
2023-03-19T01:12:23.585Z,8.05
2023-03-19T01:13:26.868Z,7.40
2023-03-19T01:14:33.121Z,6.82
2023-03-19T01:15:36.611Z,6.78
2023-03-19T01:16:39.616Z,7.29
2023-03-19T01:17:42.581Z,6.98
2023-03-19T01:18:48.325Z,7.32
2023-03-19T01:19:51.094Z,7.53
2023-03-19T01:20:53.954Z,7.28
2023-03-19T01:21:56.836Z,7.57
2023-03-19T01:22:59.633Z,7.53
2023-03-19T01:24:02.300Z,7.54
2023-03-19T01:25:04.860Z,7.35
2023-03-19T01:26:07.425Z,7.13
2023-03-19T01:27:10.183Z,7.34
2023-03-19T01:28:12.952Z,7.62
2023-03-19T01:29:15.934Z,7.72
2023-03-19T01:30:19.419Z,7.75
2023-03-19T01:31:22.673Z,7.95
2023-03-19T01:32:25.887Z,7.45
2023-03-19T01:33:29.075Z,7.50
2023-03-19T01:34:32.346Z,7.86
2023-03-19T01:35:35.450Z,7.60
2023-03-19T01:36:38.333Z,7.75
2023-03-19T01:37:41.217Z,7.90
2023-03-19T01:38:44.161Z,7.65
2023-03-19T01:39:47.573Z,7.77
2023-03-19T01:40:50.453Z,8.44
2023-03-19T01:41:53.413Z,8.02
2023-03-19T01:42:56.407Z,8.09
2023-03-19T01:43:59.555Z,7.93
2023-03-19T01:45:02.832Z,8.19
2023-03-19T01:46:06.070Z,7.15
2023-03-19T01:47:09.196Z,7.76
2023-03-19T01:48:12.483Z,8.39
2023-03-19T01:49:15.585Z,8.35
2023-03-19T01:50:18.456Z,9.21
2023-03-19T01:51:21.864Z,9.09
2023-03-19T01:52:24.618Z,8.04
2023-03-19T01:53:27.288Z,9.12
2023-03-19T01:54:30.243Z,9.37
2023-03-19T01:55:33.238Z,9.47
2023-03-19T01:56:36.602Z,8.75
2023-03-19T01:57:39.603Z,8.13
2023-03-19T01:58:42.490Z,8.11
2023-03-19T01:59:45.050Z,8.24
2023-03-19T02:00:47.918Z,8.24
2023-03-19T02:01:50.964Z,8.26
2023-03-19T02:02:53.890Z,8.40
2023-03-19T02:03:56.827Z,8.08
2023-03-19T02:04:59.824Z,7.81
2023-03-19T02:06:02.912Z,8.38
2023-03-19T02:07:05.984Z,7.85
2023-03-19T02:08:08.757Z,8.01
2023-03-19T02:09:11.536Z,8.21
2023-03-19T02:10:14.409Z,8.28
2023-03-19T02:11:17.735Z,8.42
2023-03-19T02:12:20.950Z,8.45
2023-03-19T02:13:24.143Z,8.40
2023-03-19T02:14:26.905Z,8.05
2023-03-19T02:15:29.503Z,8.51
2023-03-19T02:16:32.331Z,8.53
2023-03-19T02:17:35.120Z,8.11
2023-03-19T02:18:37.644Z,8.09
2023-03-19T02:19:40.301Z,8.32
2023-03-19T02:20:43.037Z,8.23
2023-03-19T02:21:45.805Z,8.44
2023-03-19T02:22:48.983Z,8.35
2023-03-19T02:23:51.687Z,8.42
2023-03-19T02:24:54.241Z,8.46
2023-03-19T02:25:57.020Z,8.48
2023-03-19T02:27:00.117Z,8.10
2023-03-19T02:28:03.079Z,8.49
2023-03-19T02:29:05.844Z,8.72
2023-03-19T02:30:08.899Z,9.21
2023-03-19T02:31:11.699Z,8.63
2023-03-19T02:32:14.544Z,8.52
2023-03-19T02:33:17.857Z,9.28
2023-03-19T02:34:20.909Z,8.66
2023-03-19T02:35:23.885Z,9.06
2023-03-19T02:36:26.783Z,9.39
2023-03-19T02:37:32.907Z,9.76
2023-03-19T02:38:34.374Z,9.83
2023-03-19T02:39:37.343Z,9.59
2023-03-19T02:40:40.231Z,9.62
2023-03-19T02:41:43.280Z,9.59
2023-03-19T02:42:46.260Z,9.50
2023-03-19T02:43:49.449Z,9.65
2023-03-19T02:44:52.445Z,10.12
2023-03-19T02:45:55.402Z,9.85
2023-03-19T02:46:58.205Z,9.95
2023-03-19T02:48:00.869Z,10.09
2023-03-19T02:49:04.013Z,9.89
2023-03-19T02:50:07.121Z,10.84
2023-03-19T02:51:10.181Z,10.43
2023-03-19T02:52:13.136Z,10.53
2023-03-19T02:53:15.982Z,10.47
2023-03-19T02:54:18.797Z,10.90
2023-03-19T02:55:21.789Z,11.06
2023-03-19T02:56:24.650Z,11.61
2023-03-19T02:57:27.768Z,11.03
2023-03-19T02:58:30.932Z,11.52
2023-03-19T02:59:33.900Z,11.13
2023-03-19T03:00:36.739Z,11.11
2023-03-19T03:01:39.957Z,11.30
2023-03-19T03:02:42.744Z,11.56
2023-03-19T03:03:45.799Z,10.65
2023-03-19T03:04:49.016Z,11.21
2023-03-19T03:05:51.786Z,11.06
2023-03-19T03:06:54.460Z,11.05
2023-03-19T03:07:57.227Z,10.75
2023-03-19T03:08:59.896Z,10.80
2023-03-19T03:10:02.669Z,10.60
2023-03-19T03:11:05.236Z,11.08
2023-03-19T03:12:07.907Z,10.08
2023-03-19T03:13:10.586Z,10.13
2023-03-19T03:14:13.528Z,10.18
2023-03-19T03:15:16.358Z,10.09
2023-03-19T03:16:19.348Z,9.54
2023-03-19T03:17:22.069Z,10.11
2023-03-19T03:18:25.277Z,10.55
2023-03-19T03:19:28.003Z,10.64
2023-03-19T03:20:30.887Z,10.29
2023-03-19T03:21:35.548Z,10.02
2023-03-19T03:22:38.369Z,10.05
2023-03-19T03:23:41.456Z,10.45
2023-03-19T03:24:44.232Z,10.09
2023-03-19T03:25:47.403Z,9.95
2023-03-19T03:26:50.480Z,9.93
2023-03-19T03:27:53.564Z,9.95
2023-03-19T03:28:56.541Z,9.75
2023-03-19T03:29:59.623Z,9.55
2023-03-19T03:31:03.016Z,9.81
2023-03-19T03:32:05.995Z,9.98
2023-03-19T03:33:08.820Z,10.27
2023-03-19T03:34:11.565Z,9.70
2023-03-19T03:35:14.511Z,9.22
2023-03-19T03:36:17.707Z,9.78
2023-03-19T03:37:20.666Z,9.15
2023-03-19T03:38:24.052Z,9.32
2023-03-19T03:39:27.146Z,9.02
2023-03-19T03:40:30.212Z,9.25
2023-03-19T03:41:33.388Z,9.01
2023-03-19T03:42:36.466Z,8.88
2023-03-19T03:43:39.348Z,8.86
2023-03-19T03:44:42.014Z,8.97
2023-03-19T03:45:44.736Z,8.93
2023-03-19T03:46:47.663Z,8.36
2023-03-19T03:47:50.435Z,8.29
2023-03-19T03:48:53.209Z,8.58
2023-03-19T03:49:56.302Z,8.28
2023-03-19T03:50:59.376Z,7.88
2023-03-19T03:52:02.349Z,8.08
2023-03-19T03:53:05.118Z,8.29
2023-03-19T03:54:08.507Z,8.37
2023-03-19T03:55:11.792Z,8.54
2023-03-19T03:56:14.672Z,8.29
2023-03-19T03:57:17.745Z,7.87
2023-03-19T03:58:20.633Z,8.10
2023-03-19T03:59:23.488Z,8.23
2023-03-19T04:00:26.474Z,7.76
2023-03-19T04:01:29.343Z,7.47
2023-03-19T04:02:32.359Z,7.64
2023-03-19T04:03:40.890Z,7.83
2023-03-19T04:04:43.702Z,7.53
2023-03-19T04:05:46.489Z,7.39
2023-03-19T04:06:49.268Z,7.22
2023-03-19T04:07:52.636Z,6.98
2023-03-19T04:08:55.307Z,6.86
2023-03-19T04:09:58.184Z,6.88
2023-03-19T04:11:00.844Z,7.01
2023-03-19T04:12:03.618Z,6.83
2023-03-19T04:13:06.595Z,6.55
2023-03-19T04:14:09.377Z,7.20
2023-03-19T04:15:12.250Z,6.65
2023-03-19T04:16:15.067Z,6.00
2023-03-19T04:17:17.789Z,6.52
2023-03-19T04:18:20.770Z,6.79
2023-03-19T04:19:23.535Z,6.71
2023-03-19T04:20:26.202Z,6.85
2023-03-19T04:21:29.185Z,6.65
2023-03-19T04:22:32.060Z,6.45
2023-03-19T04:23:35.041Z,6.30
2023-03-19T04:24:37.739Z,6.51
2023-03-19T04:25:40.475Z,6.49
2023-03-19T04:26:43.144Z,6.39
2023-03-19T04:27:45.847Z,6.41
2023-03-19T04:28:50.664Z,6.44
2023-03-19T04:29:53.417Z,6.14
2023-03-19T04:30:56.349Z,6.20
2023-03-19T04:31:59.059Z,6.42
2023-03-19T04:33:01.753Z,6.47
2023-03-19T04:34:04.497Z,6.48
2023-03-19T04:35:07.271Z,6.48
2023-03-19T04:36:09.937Z,6.55
2023-03-19T04:37:12.913Z,5.95
2023-03-19T04:38:16.096Z,6.40
2023-03-19T04:39:19.392Z,6.12
2023-03-19T04:40:22.375Z,6.16
2023-03-19T04:41:25.436Z,6.55
2023-03-19T04:42:28.317Z,6.30
2023-03-19T04:43:31.410Z,6.35
2023-03-19T04:44:34.681Z,6.02
2023-03-19T04:45:37.350Z,6.55
2023-03-19T04:46:40.423Z,6.21
2023-03-19T04:47:43.094Z,6.11
2023-03-19T04:48:45.867Z,6.44
2023-03-19T04:49:51.115Z,6.17
2023-03-19T04:50:54.085Z,6.32
2023-03-19T04:53:12.930Z,6.28
2023-03-19T04:54:15.701Z,6.12
2023-03-19T04:55:18.615Z,6.30
2023-03-19T04:56:21.348Z,5.95
2023-03-19T04:57:24.024Z,6.17
2023-03-19T04:58:26.819Z,6.17
2023-03-19T04:59:29.461Z,6.31
2023-03-19T05:00:32.795Z,6.17
2023-03-19T05:01:35.777Z,6.90
2023-03-19T05:02:38.596Z,6.92
2023-03-19T05:03:41.530Z,6.31
2023-03-19T05:04:44.253Z,6.16
2023-03-19T05:05:47.023Z,6.20
2023-03-19T05:06:49.790Z,6.27
2023-03-19T05:07:52.456Z,6.37
2023-03-19T05:08:55.127Z,6.41
2023-03-19T05:09:57.898Z,6.42
2023-03-19T05:11:00.980Z,6.68
2023-03-19T05:12:03.966Z,6.12
2023-03-19T05:13:06.633Z,6.18
2023-03-19T05:14:09.604Z,6.59
2023-03-19T05:15:12.478Z,6.68
2023-03-19T05:16:15.848Z,6.19
2023-03-19T05:17:18.737Z,6.62
2023-03-19T05:18:21.831Z,6.38
2023-03-19T05:19:24.903Z,6.27
2023-03-19T05:20:27.876Z,6.49
2023-03-19T05:21:31.156Z,6.47
2023-03-19T05:22:34.257Z,5.91
2023-03-19T05:23:36.907Z,6.09
2023-03-19T05:24:39.581Z,5.89
2023-03-19T05:25:42.349Z,5.88
2023-03-19T05:26:45.429Z,5.75
2023-03-19T05:27:48.203Z,6.25
2023-03-19T05:28:50.976Z,6.32
2023-03-19T05:29:53.853Z,5.74
2023-03-19T05:30:56.671Z,5.95
2023-03-19T05:31:59.614Z,5.95
2023-03-19T05:33:02.472Z,5.52
2023-03-19T05:34:05.242Z,5.47
2023-03-19T05:35:08.324Z,5.73
2023-03-19T05:36:11.100Z,5.56
2023-03-19T05:37:14.588Z,5.90
2023-03-19T05:38:17.779Z,5.49
2023-03-19T05:39:20.844Z,5.48
2023-03-19T05:40:23.826Z,5.39
2023-03-19T05:41:27.008Z,5.35
2023-03-19T05:42:29.790Z,5.74
2023-03-19T05:43:32.752Z,5.53
2023-03-19T05:44:35.734Z,5.06
2023-03-19T05:45:38.401Z,5.40
2023-03-19T05:46:41.205Z,5.12
2023-03-19T05:47:43.842Z,5.22
2023-03-19T05:48:46.640Z,5.26
2023-03-19T05:49:49.282Z,5.53
2023-03-19T05:50:52.053Z,5.24
2023-03-19T05:51:54.726Z,5.34
2023-03-19T05:52:57.501Z,5.28
2023-03-19T05:54:00.278Z,5.11
2023-03-19T05:55:03.352Z,4.77
2023-03-19T05:56:06.430Z,4.81
2023-03-19T05:57:09.513Z,5.08
2023-03-19T05:58:12.531Z,4.85
2023-03-19T05:59:15.177Z,4.78
2023-03-19T06:00:17.929Z,4.56
2023-03-19T06:01:21.154Z,4.67
2023-03-19T06:02:24.133Z,4.80
2023-03-19T06:03:27.066Z,4.80
2023-03-19T06:04:30.148Z,5.01
2023-03-19T06:05:33.119Z,4.60
2023-03-19T06:06:36.201Z,5.12
2023-03-19T06:07:39.156Z,4.50
2023-03-19T06:08:42.052Z,5.02
2023-03-19T06:09:45.130Z,5.19
2023-03-19T06:10:48.211Z,5.39
2023-03-19T06:11:51.189Z,5.21
2023-03-19T06:12:54.079Z,5.22
2023-03-19T06:13:57.042Z,4.75
2023-03-19T06:14:59.808Z,5.24
2023-03-19T06:16:02.617Z,5.21
2023-03-19T06:17:05.675Z,5.22
2023-03-19T06:18:08.543Z,5.37
2023-03-19T06:19:11.615Z,4.98
2023-03-19T06:20:14.288Z,4.88
2023-03-19T06:21:17.371Z,4.72
2023-03-19T06:22:21.364Z,5.06
2023-03-19T06:23:24.137Z,5.08
2023-03-19T06:24:27.113Z,5.25
2023-03-19T06:25:30.090Z,4.92
2023-03-19T06:26:33.076Z,5.11
2023-03-19T06:27:35.947Z,4.88
2023-03-19T06:28:39.125Z,5.00
2023-03-19T06:29:42.115Z,5.34
2023-03-19T06:30:44.773Z,5.08
2023-03-19T06:31:47.671Z,5.18
2023-03-19T06:32:50.308Z,5.52
2023-03-19T06:33:53.087Z,5.09
2023-03-19T06:34:56.189Z,5.43
2023-03-19T06:35:59.028Z,5.18
2023-03-19T06:37:01.819Z,5.78
2023-03-19T06:38:04.592Z,5.45
2023-03-19T06:39:07.263Z,5.19
2023-03-19T06:40:10.450Z,5.16
2023-03-19T06:41:13.419Z,5.21
2023-03-19T06:42:16.162Z,4.79
2023-03-19T06:43:19.170Z,4.98
2023-03-19T06:44:22.278Z,4.76
2023-03-19T06:45:25.436Z,5.37
2023-03-19T06:46:28.409Z,4.80
2023-03-19T06:47:31.387Z,4.82
2023-03-19T06:48:34.466Z,5.66
2023-03-19T06:49:37.347Z,4.62
2023-03-19T06:50:40.932Z,5.52
2023-03-19T06:51:43.825Z,5.36
2023-03-19T06:52:46.781Z,5.50
2023-03-19T06:53:49.693Z,6.27
2023-03-19T06:54:52.539Z,6.45
2023-03-19T06:55:55.415Z,5.80
2023-03-19T06:56:58.385Z,5.04
2023-03-19T06:58:01.394Z,4.89
2023-03-19T06:59:04.339Z,4.99
2023-03-19T07:00:07.428Z,5.08
2023-03-19T07:01:10.591Z,4.57
2023-03-19T07:02:13.472Z,4.81
2023-03-19T07:03:16.346Z,4.81
2023-03-19T07:04:19.431Z,5.27
2023-03-19T07:05:22.097Z,4.82
2023-03-19T07:06:25.381Z,5.05
2023-03-19T07:07:28.366Z,5.01
2023-03-19T07:08:31.333Z,5.08
2023-03-19T07:09:34.316Z,5.05
2023-03-19T07:10:37.326Z,5.09
2023-03-19T07:11:40.676Z,5.25
2023-03-19T07:12:43.664Z,5.33
2023-03-19T07:13:46.469Z,4.92
2023-03-19T07:14:49.302Z,5.27
2023-03-19T07:15:52.180Z,5.12
2023-03-19T07:16:55.257Z,4.88
2023-03-19T07:17:58.231Z,5.24
2023-03-19T07:19:04.388Z,4.79
2023-03-19T07:20:07.459Z,4.78
2023-03-19T07:21:10.336Z,4.87
2023-03-19T07:22:13.412Z,4.84
2023-03-19T07:23:16.399Z,4.86
2023-03-19T07:24:19.478Z,4.94
2023-03-19T07:25:23.502Z,5.21
2023-03-19T07:26:27.471Z,5.16
2023-03-19T07:27:30.447Z,5.14
2023-03-19T07:28:33.125Z,5.25
2023-03-19T07:29:35.889Z,4.95
2023-03-19T07:30:38.667Z,5.47
2023-03-19T07:31:41.500Z,6.12
2023-03-19T07:32:44.368Z,5.59
2023-03-19T07:33:47.085Z,5.45
2023-03-19T07:34:49.856Z,5.41
2023-03-19T07:35:52.694Z,5.40
2023-03-19T07:36:55.407Z,5.23
2023-03-19T07:37:58.176Z,5.87
2023-03-19T07:39:01.046Z,6.34
2023-03-19T07:40:03.718Z,6.42
2023-03-19T07:41:06.487Z,7.28
2023-03-19T07:42:09.262Z,7.22
2023-03-19T07:43:12.138Z,7.33
2023-03-19T07:44:14.799Z,7.10
2023-03-19T07:45:17.481Z,6.98
2023-03-19T07:46:20.300Z,7.28
2023-03-19T07:47:29.009Z,7.56
2023-03-19T07:48:27.347Z,8.54
2023-03-19T07:49:30.105Z,8.15
2023-03-19T07:50:33.192Z,8.02
2023-03-19T07:51:36.057Z,8.13
2023-03-19T07:52:39.161Z,9.14
2023-03-19T07:53:42.414Z,7.54
2023-03-19T07:54:45.396Z,8.17
2023-03-19T07:55:48.395Z,8.89
2023-03-19T07:56:51.451Z,8.48
2023-03-19T07:57:54.433Z,8.12
2023-03-19T07:58:57.816Z,8.15
2023-03-19T08:00:00.789Z,8.17
2023-03-19T08:01:03.772Z,8.03
2023-03-19T08:02:06.868Z,8.10
2023-03-19T08:03:09.935Z,7.99
2023-03-19T08:04:12.940Z,8.59
2023-03-19T08:05:15.783Z,9.23
2023-03-19T08:06:18.861Z,8.87
2023-03-19T08:07:21.833Z,8.44
2023-03-19T08:08:24.914Z,9.31
2023-03-19T08:09:28.407Z,8.93
2023-03-19T08:10:31.279Z,8.78
2023-03-19T08:11:34.355Z,9.03
2023-03-19T08:12:37.331Z,9.15
2023-03-19T08:13:40.004Z,8.55
2023-03-19T08:14:43.094Z,8.76
2023-03-19T08:15:45.852Z,9.49
2023-03-19T08:16:48.704Z,9.23
2023-03-19T08:17:51.397Z,8.87
2023-03-19T08:18:54.280Z,9.44
2023-03-19T08:19:57.255Z,9.04
2023-03-19T08:20:59.816Z,9.05
2023-03-19T08:22:02.587Z,8.98
2023-03-19T08:23:05.365Z,9.52
2023-03-19T08:24:08.134Z,9.35
2023-03-19T08:25:11.473Z,9.44
2023-03-19T08:26:16.857Z,10.15
2023-03-19T08:27:19.730Z,10.49
2023-03-19T08:28:22.705Z,10.94
2023-03-19T08:29:25.578Z,11.95
2023-03-19T08:30:29.080Z,13.36
2023-03-19T08:31:32.157Z,12.25
2023-03-19T08:32:35.358Z,12.56
2023-03-19T08:33:38.013Z,13.64
2023-03-19T08:34:40.981Z,14.52
2023-03-19T08:35:43.806Z,14.34
2023-03-19T08:36:46.831Z,15.86
2023-03-19T08:37:49.500Z,16.02
2023-03-19T08:38:52.373Z,16.27
2023-03-19T08:39:55.148Z,17.47
2023-03-19T08:40:57.711Z,16.98
2023-03-19T08:42:00.607Z,18.07
2023-03-19T08:43:03.274Z,17.68
2023-03-19T08:44:06.339Z,17.21
2023-03-19T08:45:09.211Z,18.00
2023-03-19T08:46:12.124Z,17.48
2023-03-19T08:47:15.036Z,17.98
2023-03-19T08:48:18.145Z,17.41
2023-03-19T08:49:21.017Z,16.94
2023-03-19T08:50:23.890Z,17.07
2023-03-19T08:51:26.766Z,17.37
2023-03-19T08:52:29.951Z,17.06
2023-03-19T08:53:33.025Z,17.81
2023-03-19T08:54:35.798Z,18.38
2023-03-19T08:55:38.467Z,18.03
2023-03-19T08:56:41.444Z,18.22
2023-03-19T08:57:44.423Z,18.42
2023-03-19T08:58:47.502Z,17.70
2023-03-19T08:59:50.284Z,18.43
2023-03-19T09:00:53.151Z,18.03
2023-03-19T09:01:55.932Z,18.46
2023-03-19T09:02:58.709Z,18.87
2023-03-19T09:04:01.259Z,18.88
2023-03-19T09:05:04.031Z,19.02
2023-03-19T09:06:06.602Z,19.17
2023-03-19T09:07:09.575Z,20.48
2023-03-19T09:08:12.246Z,18.22
2023-03-19T09:09:15.019Z,19.57
2023-03-19T09:10:18.120Z,17.62
2023-03-19T09:11:21.059Z,17.74
2023-03-19T09:12:23.957Z,18.34
2023-03-19T09:13:26.723Z,19.42
2023-03-19T09:14:29.493Z,19.24
2023-03-19T09:15:32.912Z,19.78
2023-03-19T09:16:35.668Z,20.04
2023-03-19T09:17:38.524Z,20.45
2023-03-19T09:18:41.196Z,20.98
2023-03-19T09:19:43.968Z,21.59
2023-03-19T09:20:46.560Z,20.59
2023-03-19T09:21:49.645Z,20.18
2023-03-19T09:22:52.387Z,21.58
2023-03-19T09:23:55.473Z,21.95
2023-03-19T09:24:58.239Z,23.40
2023-03-19T09:26:00.924Z,25.16
2023-03-19T09:27:03.585Z,26.19
2023-03-19T09:28:06.757Z,26.87
2023-03-19T09:29:09.534Z,27.58
2023-03-19T09:30:12.208Z,30.22
2023-03-19T09:31:14.901Z,31.31
2023-03-19T09:32:17.653Z,34.05
2023-03-19T09:33:20.833Z,35.93
2023-03-19T09:34:23.709Z,37.33
2023-03-19T09:35:26.473Z,38.56
2023-03-19T09:36:29.354Z,39.23
2023-03-19T09:37:32.232Z,41.35
2023-03-19T09:38:35.712Z,43.24
2023-03-19T09:39:38.391Z,43.83
2023-03-19T09:40:41.053Z,44.01
2023-03-19T09:41:43.933Z,45.01
2023-03-19T09:42:46.914Z,44.42
2023-03-19T09:43:49.778Z,45.08
2023-03-19T09:44:52.658Z,45.97
2023-03-19T09:45:55.438Z,45.78
2023-03-19T09:46:58.365Z,45.95
2023-03-19T09:48:01.488Z,44.71
2023-03-19T09:49:04.674Z,42.80
2023-03-19T09:50:07.643Z,44.35
2023-03-19T09:51:10.621Z,45.28
2023-03-19T09:52:13.495Z,45.24
2023-03-19T09:53:16.367Z,44.20
2023-03-19T09:54:19.165Z,45.13
2023-03-19T09:55:22.117Z,44.96
2023-03-19T09:56:24.999Z,45.30
2023-03-19T09:57:28.178Z,45.21
2023-03-19T09:58:31.162Z,43.73
2023-03-19T09:59:34.232Z,44.68
2023-03-19T10:00:37.325Z,45.23
2023-03-19T10:01:40.438Z,46.48
2023-03-19T10:02:43.500Z,44.29
2023-03-19T10:03:46.416Z,42.86
2023-03-19T10:04:49.143Z,41.30
2023-03-19T10:05:51.993Z,41.40
2023-03-19T10:06:54.780Z,41.64
2023-03-19T10:07:57.612Z,40.92
2023-03-19T10:09:00.326Z,40.61
2023-03-19T10:10:03.082Z,41.53
2023-03-19T10:11:05.756Z,38.31
2023-03-19T10:12:09.754Z,37.67
2023-03-19T10:13:12.317Z,35.93
2023-03-19T10:14:15.095Z,36.59
2023-03-19T10:15:17.674Z,35.62
2023-03-19T10:16:20.386Z,35.82
2023-03-19T10:17:22.998Z,36.32
2023-03-19T10:18:35.088Z,37.17
2023-03-19T10:19:40.539Z,36.44
2023-03-19T10:20:42.381Z,34.95
2023-03-19T10:21:45.247Z,34.68
2023-03-19T10:22:48.236Z,34.02
2023-03-19T10:23:51.098Z,32.28
2023-03-19T10:24:54.077Z,32.60
2023-03-19T10:27:07.001Z,30.84
2023-03-19T10:28:09.773Z,30.98
2023-03-19T10:30:20.549Z,28.66
2023-03-19T10:31:23.718Z,28.59
2023-03-19T10:33:42.882Z,27.80
2023-03-19T10:34:45.886Z,27.64
2023-03-19T10:35:48.856Z,27.44
2023-03-19T10:36:51.814Z,26.85
2023-03-19T10:37:54.688Z,26.85
2023-03-19T10:38:57.663Z,25.61
2023-03-19T10:40:00.649Z,25.96
2023-03-19T10:41:03.412Z,24.83
2023-03-19T10:42:06.394Z,25.05
2023-03-19T10:43:25.050Z,23.63
2023-03-19T10:44:28.021Z,22.73
2023-03-19T10:45:30.963Z,23.11
2023-03-19T10:46:33.867Z,23.42
2023-03-19T10:47:36.756Z,22.95
2023-03-19T10:48:39.511Z,22.94
2023-03-19T10:49:42.313Z,22.25
2023-03-19T10:50:45.160Z,21.55
2023-03-19T10:51:48.039Z,20.55
2023-03-19T10:52:50.909Z,20.93
2023-03-19T10:53:53.712Z,20.30
2023-03-19T10:54:56.558Z,19.47
2023-03-19T10:57:09.677Z,20.78
2023-03-19T10:58:12.560Z,19.97
2023-03-19T11:00:31.619Z,20.73
2023-03-19T11:01:34.756Z,20.57
2023-03-19T11:02:37.396Z,20.12
2023-03-19T11:03:40.290Z,20.76
2023-03-19T11:04:43.218Z,20.28
2023-03-19T11:05:46.393Z,21.02
2023-03-19T11:06:49.377Z,20.03
2023-03-19T11:07:52.360Z,19.84
2023-03-19T11:08:55.424Z,19.65
2023-03-19T11:11:14.795Z,19.94
2023-03-19T11:12:17.475Z,19.52
2023-03-19T11:13:20.137Z,20.12
2023-03-19T11:14:22.809Z,20.66
2023-03-19T11:15:25.484Z,21.01
2023-03-19T11:16:28.297Z,20.35
2023-03-19T11:18:47.306Z,19.74
2023-03-19T11:19:50.185Z,20.21
2023-03-19T11:20:53.053Z,19.12
2023-03-19T11:21:55.622Z,20.11
2023-03-19T11:22:58.193Z,20.59
2023-03-19T11:24:00.867Z,21.39
2023-03-19T11:26:19.423Z,20.97
2023-03-19T11:27:22.185Z,20.89
2023-03-19T11:28:26.367Z,21.30
2023-03-19T11:29:29.475Z,21.28
2023-03-19T11:30:32.446Z,21.10
2023-03-19T11:31:35.326Z,20.96
2023-03-19T11:33:54.806Z,22.68
2023-03-19T11:34:57.584Z,22.54
2023-03-19T11:36:00.288Z,23.57
2023-03-19T11:37:03.316Z,22.05
2023-03-19T11:38:05.979Z,22.62
2023-03-19T11:39:08.855Z,22.41
2023-03-19T11:40:11.631Z,21.96
2023-03-19T11:41:14.571Z,22.85
2023-03-19T11:42:17.480Z,23.09
2023-03-19T11:43:20.576Z,22.04
2023-03-19T11:44:23.437Z,22.80
2023-03-19T11:45:26.337Z,23.40
2023-03-19T11:46:29.335Z,23.68
2023-03-19T11:48:48.155Z,23.92
2023-03-19T11:49:51.023Z,23.06
2023-03-19T11:50:53.690Z,22.70
2023-03-19T11:51:56.567Z,20.18
2023-03-19T11:52:59.335Z,21.82
2023-03-19T11:54:02.325Z,23.93
2023-03-19T11:55:05.392Z,22.95
2023-03-19T11:56:08.192Z,22.95
2023-03-19T11:57:26.713Z,23.22
2023-03-19T11:58:29.393Z,21.42
2023-03-19T11:59:31.946Z,21.98
2023-03-19T12:00:34.717Z,21.04
2023-03-19T12:01:39.221Z,20.94
2023-03-19T12:02:41.937Z,21.47
2023-03-19T12:03:44.839Z,20.99
2023-03-19T12:04:47.958Z,21.86
2023-03-19T12:05:51.036Z,21.68
2023-03-19T12:06:53.820Z,21.49
2023-03-19T12:07:56.691Z,20.85
2023-03-19T12:08:59.461Z,22.22
2023-03-19T12:10:02.160Z,21.15
2023-03-19T12:11:04.922Z,20.33
2023-03-19T12:12:07.880Z,19.93
2023-03-19T12:14:26.898Z,20.39
2023-03-19T12:15:29.723Z,20.63
2023-03-19T12:16:32.580Z,22.10
2023-03-19T12:17:35.155Z,21.17
2023-03-19T12:18:37.819Z,20.72
2023-03-19T12:19:40.388Z,19.52
2023-03-19T12:20:43.072Z,22.47
2023-03-19T12:23:02.226Z,19.95
2023-03-19T12:24:04.932Z,19.64
2023-03-19T12:25:07.569Z,19.99
2023-03-19T12:26:10.234Z,20.32
2023-03-19T12:27:12.899Z,20.81
2023-03-19T12:28:15.580Z,21.52
2023-03-19T12:29:18.142Z,21.13
2023-03-19T12:30:20.706Z,20.89
2023-03-19T12:31:26.460Z,21.02
2023-03-19T12:32:29.115Z,20.04
2023-03-19T12:34:48.769Z,20.87
2023-03-19T12:35:51.591Z,20.38
2023-03-19T12:37:57.219Z,21.02
2023-03-19T12:38:59.875Z,20.68
2023-03-19T12:40:02.459Z,20.66
2023-03-19T12:41:05.254Z,19.92
2023-03-19T12:42:08.098Z,19.57
2023-03-19T12:44:27.158Z,19.95
2023-03-19T12:45:30.030Z,20.03
2023-03-19T12:46:32.694Z,20.92
2023-03-19T12:47:35.345Z,21.22
2023-03-19T12:48:38.243Z,20.82
2023-03-19T12:49:40.913Z,21.13
2023-03-19T12:50:43.805Z,20.70
2023-03-19T12:51:46.458Z,20.45
2023-03-19T12:52:49.541Z,21.13
2023-03-19T12:53:52.618Z,21.56
2023-03-19T12:54:55.393Z,20.88
2023-03-19T12:55:58.172Z,21.18
2023-03-19T12:57:00.831Z,20.53
2023-03-19T12:58:03.817Z,21.07
2023-03-19T12:59:06.578Z,20.90
2023-03-19T13:00:09.453Z,20.47
2023-03-19T13:01:12.437Z,19.99
2023-03-19T13:02:15.261Z,21.42
2023-03-19T13:03:18.088Z,19.55
2023-03-19T13:04:20.889Z,21.49
2023-03-19T13:05:23.730Z,21.16
2023-03-19T13:06:26.391Z,21.15
2023-03-19T13:07:29.070Z,21.06
2023-03-19T13:08:31.876Z,20.15
2023-03-19T13:09:34.621Z,19.83
2023-03-19T13:10:37.283Z,20.10
2023-03-19T13:11:39.960Z,19.75
2023-03-19T13:12:42.517Z,20.18
2023-03-19T13:13:45.292Z,19.96
2023-03-19T13:14:47.968Z,20.90
2023-03-19T13:15:50.758Z,20.44
2023-03-19T13:16:53.313Z,21.04
2023-03-19T13:17:56.182Z,21.52
2023-03-19T13:18:59.120Z,20.32
2023-03-19T13:20:02.036Z,20.88
2023-03-19T13:21:04.922Z,19.06
2023-03-19T13:22:07.669Z,19.46
2023-03-19T13:23:10.547Z,20.11
2023-03-19T13:24:13.423Z,18.85
2023-03-19T13:25:16.295Z,18.43
2023-03-19T13:26:18.976Z,19.72
2023-03-19T13:27:21.835Z,20.02
2023-03-19T13:28:24.712Z,20.09
2023-03-19T13:29:27.488Z,20.18
2023-03-19T13:30:30.365Z,19.96
2023-03-19T13:31:33.430Z,18.74
2023-03-19T13:32:36.406Z,19.41
2023-03-19T13:33:39.191Z,19.62
2023-03-19T13:34:41.959Z,19.12
2023-03-19T13:35:45.020Z,18.72
2023-03-19T13:36:47.812Z,18.73
2023-03-19T13:37:50.492Z,17.88
2023-03-19T13:38:53.488Z,19.21
2023-03-19T13:39:58.486Z,18.35
2023-03-19T13:41:00.569Z,18.92
2023-03-19T13:42:03.222Z,18.68
2023-03-19T13:43:09.158Z,18.17
2023-03-19T13:44:10.083Z,18.46
2023-03-19T13:45:12.969Z,18.65
2023-03-19T13:46:15.942Z,18.19
2023-03-19T13:47:18.712Z,18.73
2023-03-19T13:48:24.590Z,17.80
2023-03-19T13:49:25.490Z,18.14
2023-03-19T13:50:31.885Z,18.14
2023-03-19T13:52:50.937Z,19.69
2023-03-19T13:53:53.570Z,19.49
2023-03-19T13:54:56.162Z,18.51
2023-03-19T13:55:59.010Z,18.12
2023-03-19T13:57:01.648Z,17.88
2023-03-19T13:58:04.258Z,19.61
2023-03-19T13:59:06.921Z,18.61
2023-03-19T14:00:09.690Z,18.51
2023-03-19T14:01:12.416Z,18.34
2023-03-19T14:02:15.234Z,18.33
2023-03-19T14:03:18.148Z,18.58
2023-03-19T14:04:21.095Z,18.64
2023-03-19T14:05:23.652Z,18.92
2023-03-19T14:06:26.263Z,18.87
2023-03-19T14:07:28.796Z,18.35
2023-03-19T14:08:31.471Z,18.48